createdAt,value
2018-05-21T00:00:12.275Z,21.00
2018-05-21T00:00:49.698Z,21.00
2018-05-21T00:01:26.833Z,21.00
2018-05-21T00:02:05.094Z,21.00
2018-05-21T00:02:43.135Z,21.00
2018-05-21T00:03:20.500Z,21.00
2018-05-21T00:03:58.531Z,21.00
2018-05-21T00:04:36.596Z,21.00
2018-05-21T00:05:14.828Z,21.00
2018-05-21T00:05:52.245Z,21.00
2018-05-21T00:06:29.575Z,21.10
2018-05-21T00:07:07.011Z,21.10
2018-05-21T00:07:44.369Z,21.00
2018-05-21T00:08:21.562Z,21.00
2018-05-21T00:08:58.796Z,21.00
2018-05-21T00:09:36.086Z,21.00
2018-05-21T00:10:13.497Z,21.00
2018-05-21T00:10:51.282Z,21.00
2018-05-21T00:11:29.180Z,21.00
2018-05-21T00:12:06.557Z,21.00
2018-05-21T00:12:44.743Z,21.00
2018-05-21T00:13:22.088Z,21.00
2018-05-21T00:14:00.263Z,21.00
2018-05-21T00:14:38.204Z,21.00
2018-05-21T00:15:15.478Z,21.00
2018-05-21T00:15:53.692Z,21.00
2018-05-21T00:16:31.043Z,21.00
2018-05-21T00:17:08.225Z,21.00
2018-05-21T00:17:45.686Z,21.00
2018-05-21T00:18:23.136Z,21.00
2018-05-21T00:19:01.313Z,21.00
2018-05-21T00:19:38.509Z,21.00
2018-05-21T00:20:15.977Z,21.00
2018-05-21T00:20:54.024Z,21.00
2018-05-21T00:21:31.248Z,21.00
2018-05-21T00:22:08.617Z,21.00
2018-05-21T00:22:45.816Z,21.00
2018-05-21T00:23:23.217Z,21.00
2018-05-21T00:24:01.502Z,21.00
2018-05-21T00:24:39.508Z,21.00
2018-05-21T00:25:16.767Z,21.00
2018-05-21T00:25:54.019Z,21.00
2018-05-21T00:26:31.203Z,21.00
2018-05-21T00:27:08.562Z,21.00
2018-05-21T00:27:46.694Z,21.00
2018-05-21T00:28:24.684Z,21.00
2018-05-21T00:29:02.682Z,21.00
2018-05-21T00:29:40.775Z,21.00
2018-05-21T00:30:17.959Z,21.00
2018-05-21T00:30:55.355Z,21.00
2018-05-21T00:31:33.578Z,21.00
2018-05-21T00:32:10.847Z,21.00
2018-05-21T00:32:48.978Z,21.00
2018-05-21T00:33:26.183Z,21.00
2018-05-21T00:34:03.432Z,20.90
2018-05-21T00:34:41.592Z,21.00
2018-05-21T00:35:18.931Z,21.00
2018-05-21T00:35:56.073Z,21.00
2018-05-21T00:36:33.404Z,20.90
2018-05-21T00:37:10.833Z,20.90
2018-05-21T00:37:49.002Z,21.00
2018-05-21T00:38:27.206Z,20.90
2018-05-21T00:39:05.414Z,20.90
2018-05-21T00:39:42.661Z,20.90
2018-05-21T00:40:20.105Z,20.90
2018-05-21T00:40:58.050Z,20.90
2018-05-21T00:41:35.485Z,20.90
2018-05-21T00:42:13.635Z,21.00
2018-05-21T00:42:51.005Z,21.00
2018-05-21T00:43:28.376Z,21.00
2018-05-21T00:44:06.583Z,20.90
2018-05-21T00:44:44.732Z,20.90
2018-05-21T00:45:21.906Z,20.90
2018-05-21T00:45:59.182Z,20.90
2018-05-21T00:46:37.431Z,20.90
2018-05-21T00:47:14.757Z,20.90
2018-05-21T00:47:51.994Z,20.90
2018-05-21T00:48:29.214Z,20.90
2018-05-21T00:49:06.575Z,20.90
2018-05-21T00:49:43.775Z,20.90
2018-05-21T00:50:22.052Z,20.90
2018-05-21T00:50:59.231Z,20.90
2018-05-21T00:51:37.367Z,20.90
2018-05-21T00:52:14.683Z,20.90
2018-05-21T00:52:52.054Z,20.90
2018-05-21T00:53:29.416Z,20.90
2018-05-21T00:54:06.624Z,20.90
2018-05-21T00:54:43.826Z,20.90
2018-05-21T00:55:21.193Z,20.90
2018-05-21T00:55:58.443Z,20.90
2018-05-21T00:56:36.562Z,20.90
2018-05-21T00:57:14.751Z,20.90
2018-05-21T00:57:52.950Z,20.90
2018-05-21T00:58:30.334Z,20.90
2018-05-21T00:59:07.505Z,20.90
2018-05-21T00:59:44.881Z,20.90
2018-05-21T01:00:22.396Z,20.90
2018-05-21T01:01:00.430Z,20.90
2018-05-21T01:01:37.890Z,20.90
2018-05-21T01:02:15.305Z,20.90
2018-05-21T01:02:53.485Z,20.90
2018-05-21T01:03:31.575Z,20.90
2018-05-21T01:04:08.942Z,20.90
2018-05-21T01:04:46.358Z,20.90
2018-05-21T01:05:23.586Z,20.90
2018-05-21T01:06:00.912Z,20.90
2018-05-21T01:06:38.227Z,20.90
2018-05-21T01:07:15.611Z,20.90
2018-05-21T01:07:53.034Z,20.90
2018-05-21T01:08:30.423Z,20.90
2018-05-21T01:09:07.863Z,20.90
2018-05-21T01:09:45.239Z,20.90
2018-05-21T01:10:22.617Z,20.90
2018-05-21T01:11:00.042Z,20.90
2018-05-21T01:11:37.437Z,20.90
2018-05-21T01:12:15.602Z,20.90
2018-05-21T01:12:52.933Z,20.90
2018-05-21T01:13:30.291Z,20.90
2018-05-21T01:14:08.430Z,20.90
2018-05-21T01:14:45.777Z,20.90
2018-05-21T01:15:23.158Z,20.90
2018-05-21T01:16:01.453Z,20.90
2018-05-21T01:16:38.822Z,20.90
2018-05-21T01:17:16.227Z,20.90
2018-05-21T01:17:53.582Z,20.90
2018-05-21T01:18:31.069Z,20.90
2018-05-21T01:19:08.345Z,20.90
2018-05-21T01:19:45.754Z,20.90
2018-05-21T01:20:23.146Z,20.90
2018-05-21T01:21:01.198Z,20.90
2018-05-21T01:21:38.629Z,20.90
2018-05-21T01:22:16.567Z,20.90
2018-05-21T01:22:53.985Z,20.90
2018-05-21T01:23:32.172Z,20.90
2018-05-21T01:24:09.420Z,20.90
2018-05-21T01:24:46.803Z,20.90
2018-05-21T01:25:25.012Z,20.90
2018-05-21T01:26:02.240Z,20.90
2018-05-21T01:26:40.351Z,20.90
2018-05-21T01:27:17.552Z,20.90
2018-05-21T01:27:54.852Z,20.90
2018-05-21T01:28:33.001Z,20.90
2018-05-21T01:29:10.355Z,20.90
2018-05-21T01:29:47.656Z,20.90
2018-05-21T01:30:24.968Z,20.90
2018-05-21T01:31:02.161Z,20.90
2018-05-21T01:31:40.295Z,20.90
2018-05-21T01:32:17.687Z,20.90
2018-05-21T01:32:55.864Z,20.90
2018-05-21T01:33:34.056Z,20.90
2018-05-21T01:34:11.406Z,20.90
2018-05-21T01:34:48.719Z,20.90
2018-05-21T01:35:25.927Z,20.90
2018-05-21T01:36:04.184Z,20.90
2018-05-21T01:36:41.410Z,20.90
2018-05-21T01:37:18.728Z,20.90
2018-05-21T01:37:56.917Z,20.90
2018-05-21T01:38:34.337Z,20.90
2018-05-21T01:39:12.283Z,20.90
2018-05-21T01:39:49.685Z,20.90
2018-05-21T01:40:27.861Z,20.90
2018-05-21T01:41:05.284Z,20.90
2018-05-21T01:41:43.435Z,20.90
2018-05-21T01:42:20.711Z,20.90
2018-05-21T01:42:58.042Z,20.90
2018-05-21T01:43:35.371Z,20.80
2018-05-21T01:44:12.631Z,20.80
2018-05-21T01:44:49.825Z,20.80
2018-05-21T01:45:27.793Z,20.90
2018-05-21T01:46:05.230Z,20.90
2018-05-21T01:46:43.487Z,20.90
2018-05-21T01:47:20.848Z,20.90
2018-05-21T01:47:59.043Z,20.90
2018-05-21T01:48:37.236Z,20.90
2018-05-21T01:49:14.604Z,20.80
2018-05-21T01:49:51.886Z,20.90
2018-05-21T01:50:30.096Z,20.80
2018-05-21T01:51:07.383Z,20.80
2018-05-21T01:51:45.555Z,20.80
2018-05-21T01:52:23.651Z,20.90
2018-05-21T01:53:01.631Z,20.90
2018-05-21T01:53:39.071Z,20.90
2018-05-21T01:54:16.453Z,20.90
2018-05-21T01:54:53.873Z,20.90
2018-05-21T01:55:31.255Z,20.90
2018-05-21T01:56:08.695Z,20.90
2018-05-21T01:56:46.006Z,20.90
2018-05-21T01:57:23.371Z,20.90
2018-05-21T01:58:00.548Z,20.90
2018-05-21T01:58:37.935Z,20.90
2018-05-21T01:59:15.077Z,20.80
2018-05-21T01:59:52.550Z,20.90
2018-05-21T02:00:30.010Z,20.90
2018-05-21T02:01:07.211Z,20.90
2018-05-21T02:01:45.417Z,20.90
2018-05-21T02:02:23.625Z,20.90
2018-05-21T02:03:00.926Z,20.90
2018-05-21T02:03:38.202Z,20.90
2018-05-21T02:04:16.359Z,20.90
2018-05-21T02:04:53.695Z,20.90
2018-05-21T02:05:31.121Z,20.80
2018-05-21T02:06:09.302Z,20.80
2018-05-21T02:06:46.648Z,20.80
2018-05-21T02:07:24.052Z,20.80
2018-05-21T02:08:01.302Z,20.80
2018-05-21T02:08:39.362Z,20.80
2018-05-21T02:09:17.424Z,20.80
2018-05-21T02:09:54.770Z,20.80
2018-05-21T02:10:32.891Z,20.80
2018-05-21T02:11:10.183Z,20.80
2018-05-21T02:11:47.389Z,20.80
2018-05-21T02:12:24.803Z,20.80
2018-05-21T02:13:02.036Z,20.80
2018-05-21T02:13:39.270Z,20.80
2018-05-21T02:14:17.451Z,20.80
2018-05-21T02:14:55.651Z,20.80
2018-05-21T02:15:32.875Z,20.80
2018-05-21T02:16:10.190Z,20.80
2018-05-21T02:16:47.598Z,20.80
2018-05-21T02:17:24.760Z,20.80
2018-05-21T02:18:02.113Z,20.80
2018-05-21T02:18:40.166Z,20.80
2018-05-21T02:19:17.343Z,20.80
2018-05-21T02:19:54.813Z,20.80
2018-05-21T02:20:32.752Z,20.80
2018-05-21T02:21:09.915Z,20.80
2018-05-21T02:21:47.355Z,20.80
2018-05-21T02:22:24.733Z,20.80
2018-05-21T02:23:02.918Z,20.80
2018-05-21T02:23:41.075Z,20.80
2018-05-21T02:24:18.523Z,20.80
2018-05-21T02:24:56.633Z,20.80
2018-05-21T02:25:33.872Z,20.80
2018-05-21T02:26:11.084Z,20.80
2018-05-21T02:26:48.470Z,20.80
2018-05-21T02:27:25.743Z,20.80
2018-05-21T02:28:02.930Z,20.80
2018-05-21T02:28:40.046Z,20.80
2018-05-21T02:29:18.296Z,20.80
2018-05-21T02:29:55.578Z,20.80
2018-05-21T02:30:32.935Z,20.80
2018-05-21T02:31:10.345Z,20.80
2018-05-21T02:31:48.521Z,20.80
2018-05-21T02:32:26.482Z,20.80
2018-05-21T02:33:03.888Z,20.80
2018-05-21T02:33:41.106Z,20.80
2018-05-21T02:34:18.520Z,20.80
2018-05-21T02:34:55.901Z,20.80
2018-05-21T02:35:33.108Z,20.80
2018-05-21T02:36:10.318Z,20.80
2018-05-21T02:36:48.533Z,20.80
2018-05-21T02:37:26.729Z,20.80
2018-05-21T02:38:04.938Z,20.80
2018-05-21T02:38:42.158Z,20.80
2018-05-21T02:39:19.458Z,20.80
2018-05-21T02:39:56.856Z,20.80
2018-05-21T02:40:34.954Z,20.80
2018-05-21T02:41:12.338Z,20.80
2018-05-21T02:41:50.345Z,20.80
2018-05-21T02:42:27.797Z,20.80
2018-05-21T02:43:05.042Z,20.80
2018-05-21T02:43:42.409Z,20.80
2018-05-21T02:44:20.535Z,20.80
2018-05-21T02:44:58.520Z,20.80
2018-05-21T02:45:35.869Z,20.80
2018-05-21T02:46:13.229Z,20.80
2018-05-21T02:46:50.634Z,20.80
2018-05-21T02:47:27.847Z,20.80
2018-05-21T02:48:05.015Z,20.80
2018-05-21T02:48:42.205Z,20.80
2018-05-21T02:49:20.292Z,20.80
2018-05-21T02:49:57.719Z,20.80
2018-05-21T02:50:35.187Z,20.80
2018-05-21T02:51:12.642Z,20.70
2018-05-21T02:51:49.885Z,20.70
2018-05-21T02:52:27.275Z,20.70
2018-05-21T02:53:04.491Z,20.70
2018-05-21T02:53:41.970Z,20.70
2018-05-21T02:54:19.346Z,20.70
2018-05-21T02:54:56.528Z,20.80
2018-05-21T02:55:33.750Z,20.70
2018-05-21T02:56:10.936Z,20.70
2018-05-21T02:56:48.255Z,20.70
2018-05-21T02:57:25.674Z,20.70
2018-05-21T02:58:03.630Z,20.70
2018-05-21T02:58:41.841Z,20.70
2018-05-21T02:59:19.013Z,20.70
2018-05-21T02:59:56.451Z,20.70
2018-05-21T03:00:33.646Z,20.70
2018-05-21T03:01:10.994Z,20.70
2018-05-21T03:01:49.113Z,20.70
2018-05-21T03:02:26.510Z,20.70
2018-05-21T03:03:03.881Z,20.70
2018-05-21T03:03:41.338Z,20.70
2018-05-21T03:04:18.658Z,20.70
2018-05-21T03:04:55.921Z,20.70
2018-05-21T03:05:33.223Z,20.70
2018-05-21T03:06:10.423Z,20.70
2018-05-21T03:06:48.368Z,20.70
2018-05-21T03:07:25.781Z,20.70
2018-05-21T03:08:03.175Z,20.70
2018-05-21T03:08:41.297Z,20.70
2018-05-21T03:09:19.499Z,20.70
2018-05-21T03:09:57.582Z,20.70
2018-05-21T03:10:35.946Z,20.70
2018-05-21T03:11:14.058Z,20.70
2018-05-21T03:11:51.437Z,20.70
2018-05-21T03:12:29.431Z,20.70
2018-05-21T03:13:06.897Z,20.70
2018-05-21T03:13:45.114Z,20.70
2018-05-21T03:14:22.254Z,20.70
2018-05-21T03:15:00.484Z,20.70
2018-05-21T03:15:37.796Z,20.70
2018-05-21T03:16:15.001Z,20.70
2018-05-21T03:16:52.290Z,20.70
2018-05-21T03:17:29.684Z,20.70
2018-05-21T03:18:07.834Z,20.70
2018-05-21T03:18:45.151Z,20.70
2018-05-21T03:19:23.329Z,20.70
2018-05-21T03:20:00.723Z,20.70
2018-05-21T03:20:38.970Z,20.70
2018-05-21T03:21:16.222Z,20.70
2018-05-21T03:21:53.567Z,20.70
2018-05-21T03:22:31.683Z,20.70
2018-05-21T03:23:08.929Z,20.70
2018-05-21T03:23:46.354Z,20.70
2018-05-21T03:24:23.529Z,20.70
2018-05-21T03:25:01.474Z,20.70
2018-05-21T03:25:38.835Z,20.70
2018-05-21T03:26:17.051Z,20.70
2018-05-21T03:26:54.390Z,20.70
2018-05-21T03:27:31.858Z,20.70
2018-05-21T03:28:09.920Z,20.70
2018-05-21T03:28:47.125Z,20.70
2018-05-21T03:29:25.160Z,20.70
2018-05-21T03:30:02.675Z,20.70
2018-05-21T03:30:39.904Z,20.70
2018-05-21T03:31:17.215Z,20.70
2018-05-21T03:31:55.212Z,20.70
2018-05-21T03:32:32.513Z,20.70
2018-05-21T03:33:09.784Z,20.70
2018-05-21T03:33:47.164Z,20.70
2018-05-21T03:34:24.350Z,20.70
2018-05-21T03:35:01.557Z,20.70
2018-05-21T03:35:38.925Z,20.70
2018-05-21T03:36:16.319Z,20.70
2018-05-21T03:36:53.700Z,20.70
2018-05-21T03:37:30.942Z,20.70
2018-05-21T03:38:08.315Z,20.70
2018-05-21T03:38:45.752Z,20.70
2018-05-21T03:39:23.151Z,20.70
2018-05-21T03:40:00.552Z,20.70
2018-05-21T03:40:38.748Z,20.70
2018-05-21T03:41:16.155Z,20.70
2018-05-21T03:41:54.315Z,20.70
2018-05-21T03:42:31.760Z,20.70
2018-05-21T03:43:08.950Z,20.70
2018-05-21T03:43:46.325Z,20.70
2018-05-21T03:44:24.540Z,20.70
2018-05-21T03:45:01.945Z,20.70
2018-05-21T03:45:39.310Z,20.70
2018-05-21T03:46:16.676Z,20.70
2018-05-21T03:46:54.006Z,20.70
2018-05-21T03:47:32.028Z,20.70
2018-05-21T03:48:10.272Z,20.70
2018-05-21T03:48:47.397Z,20.70
2018-05-21T03:49:24.787Z,20.70
2018-05-21T03:50:02.176Z,20.70
2018-05-21T03:50:39.518Z,20.70
2018-05-21T03:51:16.791Z,20.70
2018-05-21T03:51:54.178Z,20.70
2018-05-21T03:52:31.421Z,20.70
2018-05-21T03:53:09.592Z,20.70
2018-05-21T03:53:46.790Z,20.70
2018-05-21T03:54:24.185Z,20.70
2018-05-21T03:55:01.371Z,20.70
2018-05-21T03:55:39.596Z,20.70
2018-05-21T03:56:16.978Z,20.70
2018-05-21T03:56:55.180Z,20.70
2018-05-21T03:57:32.410Z,20.70
2018-05-21T03:58:09.698Z,20.70
2018-05-21T03:58:47.098Z,20.70
2018-05-21T03:59:24.279Z,20.70
2018-05-21T04:00:01.498Z,20.70
2018-05-21T04:00:39.719Z,20.70
2018-05-21T04:01:17.917Z,20.70
2018-05-21T04:01:55.199Z,20.70
2018-05-21T04:02:32.386Z,20.70
2018-05-21T04:03:10.540Z,20.80
2018-05-21T04:03:48.778Z,20.80
2018-05-21T04:04:26.095Z,20.80
2018-05-21T04:05:03.401Z,20.80
2018-05-21T04:05:40.648Z,20.80
2018-05-21T04:06:17.991Z,20.80
2018-05-21T04:06:55.321Z,20.80
2018-05-21T04:07:32.768Z,20.80
2018-05-21T04:08:10.161Z,20.80
2018-05-21T04:08:47.431Z,20.80
2018-05-21T04:09:24.720Z,20.80
2018-05-21T04:10:02.159Z,20.80
2018-05-21T04:10:39.643Z,20.80
2018-05-21T04:11:16.822Z,20.70
2018-05-21T04:11:55.117Z,20.80
2018-05-21T04:12:32.324Z,20.80
2018-05-21T04:13:09.752Z,20.80
2018-05-21T04:13:47.793Z,20.80
2018-05-21T04:14:25.999Z,20.80
2018-05-21T04:15:03.379Z,20.80
2018-05-21T04:15:41.548Z,20.80
2018-05-21T04:16:18.856Z,20.80
2018-05-21T04:16:57.109Z,20.80
2018-05-21T04:17:34.635Z,20.70
2018-05-21T04:18:12.105Z,20.70
2018-05-21T04:18:49.494Z,20.70
2018-05-21T04:19:26.826Z,20.80
2018-05-21T04:20:04.110Z,20.70
2018-05-21T04:20:41.491Z,20.80
2018-05-21T04:21:18.914Z,20.70
2018-05-21T04:21:57.105Z,20.80
2018-05-21T04:22:35.254Z,20.80
2018-05-21T04:23:12.602Z,20.80
2018-05-21T04:23:49.887Z,20.70
2018-05-21T04:24:27.172Z,20.70
2018-05-21T04:25:05.171Z,20.80
2018-05-21T04:25:42.699Z,20.80
2018-05-21T04:26:20.757Z,20.80
2018-05-21T04:26:58.102Z,20.80
2018-05-21T04:27:35.447Z,20.80
2018-05-21T04:28:12.784Z,20.80
2018-05-21T04:28:50.995Z,20.80
2018-05-21T04:29:29.065Z,20.80
2018-05-21T04:30:06.315Z,20.70
2018-05-21T04:30:43.545Z,20.80
2018-05-21T04:31:20.841Z,20.70
2018-05-21T04:31:58.974Z,20.70
2018-05-21T04:32:36.312Z,20.70
2018-05-21T04:33:13.756Z,20.70
2018-05-21T04:33:51.015Z,20.70
2018-05-21T04:34:28.419Z,20.70
2018-05-21T04:35:05.754Z,20.80
2018-05-21T04:35:43.114Z,20.80
2018-05-21T04:36:21.423Z,20.80
2018-05-21T04:36:59.323Z,20.80
2018-05-21T04:37:36.521Z,20.80
2018-05-21T04:38:14.491Z,20.80
2018-05-21T04:38:51.934Z,20.80
2018-05-21T04:39:29.312Z,20.80
2018-05-21T04:40:06.540Z,20.80
2018-05-21T04:40:44.707Z,20.80
2018-05-21T04:41:21.888Z,20.80
2018-05-21T04:41:59.178Z,20.80
2018-05-21T04:42:37.345Z,20.80
2018-05-21T04:43:14.776Z,20.80
2018-05-21T04:43:52.715Z,20.80
2018-05-21T04:44:30.133Z,20.80
2018-05-21T04:45:08.282Z,20.80
2018-05-21T04:45:46.498Z,20.80
2018-05-21T04:46:23.851Z,20.80
2018-05-21T04:47:01.166Z,20.80
2018-05-21T04:47:38.382Z,20.80
2018-05-21T04:48:16.600Z,20.80
2018-05-21T04:48:53.988Z,20.80
2018-05-21T04:49:31.221Z,20.80
2018-05-21T04:50:08.557Z,20.80
2018-05-21T04:50:45.952Z,20.80
2018-05-21T04:51:23.300Z,20.80
2018-05-21T04:52:00.584Z,20.80
2018-05-21T04:52:37.999Z,20.80
2018-05-21T04:53:15.482Z,20.80
2018-05-21T04:53:53.003Z,20.80
2018-05-21T04:54:31.078Z,20.80
2018-05-21T04:55:08.490Z,20.80
2018-05-21T04:55:45.873Z,20.80
2018-05-21T04:56:24.026Z,20.80
2018-05-21T04:57:01.434Z,20.80
2018-05-21T04:57:39.591Z,20.80
2018-05-21T04:58:17.704Z,20.80
2018-05-21T04:58:54.962Z,20.80
2018-05-21T04:59:32.126Z,20.80
2018-05-21T05:00:09.535Z,20.80
2018-05-21T05:00:47.711Z,20.80
2018-05-21T05:01:25.123Z,20.80
2018-05-21T05:02:02.352Z,20.80
2018-05-21T05:02:40.497Z,20.80
2018-05-21T05:03:17.839Z,20.80
2018-05-21T05:03:55.165Z,20.80
2018-05-21T05:04:32.551Z,20.80
2018-05-21T05:05:09.852Z,20.80
2018-05-21T05:05:47.139Z,20.80
2018-05-21T05:06:25.305Z,20.80
2018-05-21T05:07:02.707Z,20.80
2018-05-21T05:07:40.115Z,20.80
2018-05-21T05:08:17.534Z,20.80
2018-05-21T05:08:54.911Z,20.80
2018-05-21T05:09:32.141Z,20.80
2018-05-21T05:10:09.345Z,20.80
2018-05-21T05:10:46.660Z,20.80
2018-05-21T05:11:24.071Z,20.80
2018-05-21T05:12:02.022Z,20.80
2018-05-21T05:12:40.269Z,20.80
2018-05-21T05:13:17.519Z,20.80
2018-05-21T05:13:54.839Z,20.80
2018-05-21T05:14:32.246Z,20.80
2018-05-21T05:15:09.549Z,20.80
2018-05-21T05:15:46.935Z,20.80
2018-05-21T05:16:25.137Z,20.80
2018-05-21T05:17:02.339Z,20.80
2018-05-21T05:17:39.718Z,20.90
2018-05-21T05:18:17.044Z,20.90
2018-05-21T05:18:55.255Z,20.90
2018-05-21T05:19:32.609Z,20.90
2018-05-21T05:20:09.856Z,20.90
2018-05-21T05:20:47.043Z,20.90
2018-05-21T05:21:25.234Z,20.80
2018-05-21T05:22:02.612Z,20.80
2018-05-21T05:22:40.064Z,20.90
2018-05-21T05:23:17.322Z,20.80
2018-05-21T05:23:54.494Z,20.80
2018-05-21T05:24:31.890Z,20.80
2018-05-21T05:25:09.256Z,20.90
2018-05-21T05:25:46.734Z,20.90
2018-05-21T05:26:24.913Z,20.90
2018-05-21T05:27:02.983Z,20.90
2018-05-21T05:27:40.285Z,20.90
2018-05-21T05:28:17.673Z,20.90
2018-05-21T05:28:54.899Z,20.90
2018-05-21T05:29:32.762Z,20.90
2018-05-21T05:30:10.231Z,20.90
2018-05-21T05:30:48.448Z,20.90
2018-05-21T05:31:25.771Z,20.90
2018-05-21T05:32:03.164Z,20.80
2018-05-21T05:32:40.391Z,20.90
2018-05-21T05:33:17.562Z,20.90
2018-05-21T05:33:55.549Z,20.90
2018-05-21T05:34:32.898Z,20.90
2018-05-21T05:35:10.331Z,20.90
2018-05-21T05:35:48.470Z,20.90
2018-05-21T05:36:26.735Z,20.90
2018-05-21T05:37:04.229Z,20.90
2018-05-21T05:37:41.414Z,20.90
2018-05-21T05:38:18.887Z,20.90
2018-05-21T05:38:56.151Z,20.90
2018-05-21T05:39:33.516Z,20.90
2018-05-21T05:40:10.970Z,20.90
2018-05-21T05:40:48.171Z,20.90
2018-05-21T05:41:25.370Z,20.90
2018-05-21T05:42:02.879Z,20.90
2018-05-21T05:42:40.857Z,20.90
2018-05-21T05:43:18.239Z,20.90
2018-05-21T05:43:55.603Z,20.90
2018-05-21T05:44:32.979Z,20.90
2018-05-21T05:45:10.366Z,20.90
2018-05-21T05:45:47.762Z,20.90
2018-05-21T05:46:25.170Z,20.90
2018-05-21T05:47:02.646Z,20.90
2018-05-21T05:47:39.923Z,20.90
2018-05-21T05:48:17.288Z,21.00
2018-05-21T05:48:54.553Z,20.90
2018-05-21T05:49:31.791Z,20.90
2018-05-21T05:50:09.170Z,20.90
2018-05-21T05:50:47.357Z,20.90
2018-05-21T05:51:25.615Z,20.90
2018-05-21T05:52:03.787Z,20.90
2018-05-21T05:52:40.998Z,20.90
2018-05-21T05:53:19.230Z,20.90
2018-05-21T05:53:56.635Z,20.90
2018-05-21T05:54:33.844Z,21.00
2018-05-21T05:55:11.099Z,20.90
2018-05-21T05:55:48.274Z,21.00
2018-05-21T05:56:26.429Z,21.00
2018-05-21T05:57:03.759Z,21.00
2018-05-21T05:57:41.879Z,20.90
2018-05-21T05:58:19.306Z,20.90
2018-05-21T05:58:57.456Z,20.90
2018-05-21T05:59:34.862Z,20.90
2018-05-21T06:00:12.169Z,21.00
2018-05-21T06:00:50.175Z,20.90
2018-05-21T06:01:27.247Z,20.90
2018-05-21T06:02:04.608Z,20.90
2018-05-21T06:02:41.797Z,20.90
2018-05-21T06:03:19.264Z,20.90
2018-05-21T06:03:57.369Z,20.90
2018-05-21T06:04:34.737Z,20.90
2018-05-21T06:05:12.956Z,20.90
2018-05-21T06:05:50.416Z,20.90
2018-05-21T06:06:28.482Z,20.90
2018-05-21T06:07:05.783Z,20.90
2018-05-21T06:07:43.978Z,21.00
2018-05-21T06:08:21.443Z,21.00
2018-05-21T06:08:58.658Z,21.00
2018-05-21T06:09:36.052Z,21.00
2018-05-21T06:10:14.005Z,21.00
2018-05-21T06:10:51.384Z,21.00
2018-05-21T06:11:28.687Z,21.00
2018-05-21T06:12:06.893Z,21.00
2018-05-21T06:12:45.064Z,21.00
2018-05-21T06:13:22.335Z,21.00
2018-05-21T06:13:59.707Z,21.00
2018-05-21T06:14:37.887Z,21.10
2018-05-21T06:15:15.205Z,21.10
2018-05-21T06:15:52.479Z,21.00
2018-05-21T06:16:29.680Z,21.10
2018-05-21T06:17:07.837Z,21.10
2018-05-21T06:17:45.917Z,21.10
2018-05-21T06:18:23.079Z,21.10
2018-05-21T06:19:00.446Z,21.10
2018-05-21T06:19:37.810Z,21.10
2018-05-21T06:20:15.219Z,21.10
2018-05-21T06:20:53.389Z,21.10
2018-05-21T06:21:30.866Z,21.10
2018-05-21T06:22:08.369Z,21.10
2018-05-21T06:22:46.358Z,21.10
2018-05-21T06:23:23.814Z,21.10
2018-05-21T06:24:01.065Z,21.10
2018-05-21T06:24:38.271Z,21.10
2018-05-21T06:25:15.639Z,21.10
2018-05-21T06:25:53.725Z,21.10
2018-05-21T06:26:31.746Z,21.10
2018-05-21T06:27:09.013Z,21.10
2018-05-21T06:27:46.207Z,21.10
2018-05-21T06:28:24.384Z,21.10
2018-05-21T06:29:01.822Z,21.10
2018-05-21T06:29:39.170Z,21.10
2018-05-21T06:30:17.123Z,21.10
2018-05-21T06:30:54.540Z,21.10
2018-05-21T06:31:32.701Z,21.10
2018-05-21T06:32:10.102Z,21.10
2018-05-21T06:32:48.273Z,21.10
2018-05-21T06:33:26.500Z,21.10
2018-05-21T06:34:03.951Z,21.10
2018-05-21T06:34:40.995Z,21.10
2018-05-21T06:35:18.259Z,21.10
2018-05-21T06:35:56.482Z,21.10
2018-05-21T06:36:34.673Z,21.10
2018-05-21T06:37:12.056Z,21.10
2018-05-21T06:37:50.054Z,21.10
2018-05-21T06:38:27.210Z,20.70
2018-05-21T06:39:04.658Z,21.10
2018-05-21T06:39:41.970Z,21.10
2018-05-21T06:40:19.175Z,21.10
2018-05-21T06:40:56.413Z,21.10
2018-05-21T06:41:33.866Z,21.10
2018-05-21T06:42:11.791Z,21.10
2018-05-21T06:42:49.192Z,21.10
2018-05-21T06:43:26.670Z,21.10
2018-05-21T06:44:03.815Z,21.10
2018-05-21T06:44:40.937Z,21.10
2018-05-21T06:45:18.262Z,21.10
2018-05-21T06:45:56.256Z,21.10
2018-05-21T06:46:33.686Z,21.10
2018-05-21T06:47:11.089Z,21.10
2018-05-21T06:47:49.398Z,21.10
2018-05-21T06:48:26.700Z,21.10
2018-05-21T06:49:04.662Z,21.10
2018-05-21T06:49:41.995Z,21.10
2018-05-21T06:50:20.169Z,21.10
2018-05-21T06:50:57.593Z,21.10
2018-05-21T06:51:35.648Z,21.10
2018-05-21T06:52:13.002Z,21.10
2018-05-21T06:52:50.386Z,21.10
2018-05-21T06:53:28.551Z,21.10
2018-05-21T06:54:06.654Z,21.10
2018-05-21T06:54:44.045Z,21.10
2018-05-21T06:55:21.586Z,21.10
2018-05-21T06:55:58.668Z,21.10
2018-05-21T06:56:35.909Z,21.10
2018-05-21T06:57:13.951Z,21.10
2018-05-21T06:57:52.068Z,21.20
2018-05-21T06:58:29.362Z,21.20
2018-05-21T06:59:06.786Z,21.20
2018-05-21T06:59:44.092Z,21.20
2018-05-21T07:00:21.335Z,21.10
2018-05-21T07:00:58.666Z,21.20
2018-05-21T07:01:36.080Z,21.20
2018-05-21T07:02:13.502Z,21.20
2018-05-21T07:02:50.801Z,21.20
2018-05-21T07:03:28.071Z,21.20
2018-05-21T07:04:05.255Z,21.20
2018-05-21T07:04:42.457Z,21.20
2018-05-21T07:05:19.716Z,21.20
2018-05-21T07:05:57.831Z,21.20
2018-05-21T07:06:35.939Z,21.20
2018-05-21T07:07:14.036Z,21.20
2018-05-21T07:07:51.250Z,21.20
2018-05-21T07:08:28.451Z,21.20
2018-05-21T07:09:06.653Z,21.20
2018-05-21T07:09:43.901Z,21.20
2018-05-21T07:10:21.129Z,21.20
2018-05-21T07:10:58.474Z,21.20
2018-05-21T07:11:36.683Z,21.20
2018-05-21T07:12:14.761Z,21.20
2018-05-21T07:12:52.167Z,21.20
2018-05-21T07:13:29.536Z,21.30
2018-05-21T07:14:07.513Z,21.30
2018-05-21T07:14:44.884Z,21.30
2018-05-21T07:15:23.077Z,21.30
2018-05-21T07:16:00.581Z,21.30
2018-05-21T07:16:38.561Z,21.30
2018-05-21T07:17:16.022Z,21.30
2018-05-21T07:17:54.222Z,21.30
2018-05-21T07:18:31.548Z,21.30
2018-05-21T07:19:09.729Z,21.30
2018-05-21T07:19:47.035Z,21.30
2018-05-21T07:20:24.206Z,21.30
2018-05-21T07:21:01.403Z,21.30
2018-05-21T07:21:38.796Z,21.30
2018-05-21T07:22:16.886Z,21.40
2018-05-21T07:22:54.131Z,21.40
2018-05-21T07:23:31.450Z,21.40
2018-05-21T07:24:08.666Z,21.40
2018-05-21T07:24:46.786Z,21.40
2018-05-21T07:25:24.227Z,21.40
2018-05-21T07:26:01.583Z,21.40
2018-05-21T07:26:39.541Z,21.50
2018-05-21T07:27:16.981Z,21.40
2018-05-21T07:27:55.215Z,21.50
2018-05-21T07:28:33.328Z,21.50
2018-05-21T07:29:10.737Z,21.50
2018-05-21T07:29:48.883Z,21.50
2018-05-21T07:30:26.981Z,21.50
2018-05-21T07:31:05.146Z,21.50
2018-05-21T07:31:42.527Z,21.50
2018-05-21T07:32:19.903Z,21.50
2018-05-21T07:32:57.157Z,21.50
2018-05-21T07:33:34.523Z,21.60
2018-05-21T07:34:11.886Z,21.60
2018-05-21T07:34:49.942Z,21.60
2018-05-21T07:35:27.294Z,21.50
2018-05-21T07:36:05.419Z,21.60
2018-05-21T07:36:42.599Z,21.60
2018-05-21T07:37:20.039Z,21.60
2018-05-21T07:37:57.439Z,21.60
2018-05-21T07:38:34.830Z,21.60
2018-05-21T07:39:12.222Z,21.60
2018-05-21T07:39:50.285Z,21.60
2018-05-21T07:40:27.829Z,21.60
2018-05-21T07:41:05.039Z,21.60
2018-05-21T07:41:42.484Z,21.60
2018-05-21T07:42:19.915Z,21.60
2018-05-21T07:42:57.433Z,21.60
2018-05-21T07:43:34.806Z,21.70
2018-05-21T07:44:12.002Z,21.60
2018-05-21T07:44:50.032Z,21.70
2018-05-21T07:45:27.934Z,21.70
2018-05-21T07:46:05.164Z,21.70
2018-05-21T07:46:42.564Z,21.70
2018-05-21T07:47:19.785Z,21.70
2018-05-21T07:47:58.021Z,21.70
2018-05-21T07:48:35.388Z,21.70
2018-05-21T07:49:12.702Z,21.70
2018-05-21T07:49:50.864Z,21.70
2018-05-21T07:50:28.351Z,21.70
2018-05-21T07:51:05.666Z,21.70
2018-05-21T07:51:43.229Z,21.70
2018-05-21T07:52:21.277Z,21.70
2018-05-21T07:52:58.667Z,21.70
2018-05-21T07:53:36.054Z,21.70
2018-05-21T07:54:13.190Z,21.70
2018-05-21T07:54:51.300Z,21.70
2018-05-21T07:55:29.368Z,21.70
2018-05-21T07:56:06.681Z,21.70
2018-05-21T07:56:43.945Z,21.70
2018-05-21T07:57:22.028Z,21.70
2018-05-21T07:57:59.414Z,21.70
2018-05-21T07:58:37.422Z,21.70
2018-05-21T07:59:14.750Z,21.70
2018-05-21T07:59:52.111Z,21.80
2018-05-21T08:00:29.477Z,21.70
2018-05-21T08:01:07.571Z,21.80
2018-05-21T08:01:45.618Z,21.80
2018-05-21T08:02:23.057Z,21.80
2018-05-21T08:03:00.461Z,21.80
2018-05-21T08:03:37.685Z,21.80